Fort Gratiot, Michigan
Current Conditions -  °F | °C
As of 3:00 AM on Sunday 21 Dec 2014 (Local Time) from CYZR Reporting Station
Overcast Overcast  
Wind Chill: 27°   Ceiling: 3000
Heat Index: 27°   Visibility: 7mi
Dew Point: 23°   Wind: 2mph
Humidity: 86%   Direction: 180°S
Pressure: 30.3"   Gusts: NA
Location:  43.08°N, 82.49°W
Report Text: CYZR 210800Z AUTO 18002KT 7SM OVC030 M03/M05 A3030 RMK SLP269
Loading
Personal Weather Stations






























Interactive Weather Map New forecast layout! Learn more

10-Day Weather Forecast

Advertisements
Track Severe Weather on mobile